Terminal Aerodrome Forecast
Issued by NWS Shreveport, LA

Home | Current Version | Previous Version | Text Only | Print | Product List | Glossary On
Versions: 1 2 3 4 5 6 7 8 9 10 11
000
FTUS44 KSHV 230538
TAFTXK
TAF
KTXK 230538Z 2306/2406 00000KT P6SM SKC
     FM231000 VRB04KT P6SM FEW200
     FM231900 28004KT P6SM SKC
     FM240200 21003KT P6SM SKC=

USA.gov is the U.S. government's official web portal to all federal, state and local government web resources and services.